(°C)
16°
17°
19°
20°
21°
21°
22°
(°C)
15°
16°
18°
19°
20°
21°
21°
WSW
WSW
غرب
غرب
WNW
WNW
ENE
(كم/سا)
5-8
5-8
3-6
3-6
3-8
4-13
6-18
(مم)
0
0
0
0
0
1.3
1.5
(%)
5
11
24
39
39
67
78

مستوى ارتفاع الشمس

/ 12.4°
sun-icon
UV 6
05:35
20:45
بدر كامل (185°)
21:33
05:38

متر لإنسبروك (LOWI)

الوقت الشروط درجة الحرارة/
نقطة الندى
رياح مجال رؤية حالة الطقس غيوم الضغط تغيير خام
VFR 15°C / 14°C variable 2kt >10km - Few Clouds 800ft
Broken Clouds 8000ft
1020 No Significant change LOWI 160420Z VRB02KT 9999 FEW008 BKN080 15/14 Q1020 RESHRA NOSIG
VFR 16°C / 14°C variable 2kt >10km Showers Rain 3.00mm precipitation Vertical Visibility of 0ft.
Broken Clouds 8000ft
1020 Becoming: NSW LOWI 160350Z VRB02KT 9999 SHRA FEW015 BKN080 16/14 Q1020 BECMG NSW
VFR 16°C / 14°C variable 2kt >10km Light Rain 1.00mm precipitation Vertical Visibility of 0ft.
Broken Clouds 9000ft
1019 - LOWI 160320Z AUTO VRB02KT 9999 -RA FEW046 BKN090 16/14 Q1019
VFR 16°C / 15°C 110º variable 070º to 150º 3kt >10km - Few Clouds 7000ft
Scattered Clouds 9000ft
Broken Clouds 10000ft
1019 - LOWI 160250Z AUTO 11003KT 070V150 9999 FEW070 SCT090 BKN100 16/15 Q1019
VFR 16°C / 14°C variable 4kt >10km - Broken Clouds 8000ft 1019 - LOWI 160220Z AUTO VRB04KT 9999 BKN080 16/14 Q1019
VFR 16°C / 14°C variable 2kt >10km in the Vicinity Thunderstorm Vertical Visibility of 0ft.
Broken Clouds 8000ft
1019 - LOWI 160150Z AUTO VRB02KT 9999 VCTS //////CB FEW070 BKN080 16/14 Q1019
VFR 17°C / 13°C 250º 3kt >10km Light Showers Rain 3.00mm precipitation Vertical Visibility of 0ft.
Scattered Clouds 4800ft
Broken Clouds 8000ft
1019 - LOWI 160120Z AUTO 25003KT 9999 -SHRA //////CB FEW019 SCT048 BKN080 17/13 Q1019 RESHRA
VFR 17°C / 12°C variable 1kt >10km - Broken Clouds 7000ft 1019 - LOWI 160050Z AUTO VRB01KT 9999 //////CB BKN070 17/12 Q1019
VFR 17°C / 12°C variable 2kt >10km - Broken Clouds 7000ft 1018 - LOWI 160020Z AUTO VRB02KT 9999 BKN070 17/12 Q1018
VFR 17°C / 12°C variable 2kt >10km - Few Clouds 7000ft
Broken Clouds 8000ft
1019 - LOWI 152350Z AUTO VRB02KT 9999 FEW070 BKN080 17/12 Q1019
VFR 17°C / 12°C variable 2kt >10km - Few Clouds 9000ft 1019 - LOWI 152320Z AUTO VRB02KT 9999 FEW090 17/12 Q1019
VFR 17°C / 12°C variable 2kt >10km - Scattered Clouds 9000ft
Broken Clouds 11000ft
1019 - LOWI 152250Z AUTO VRB02KT 9999 SCT090 BKN110 17/12 Q1019
VFR 18°C / 12°C variable 2kt >10km - Few Clouds 8000ft
Scattered Clouds 10000ft
1018 - LOWI 152220Z AUTO VRB02KT 9999 FEW080 SCT100 18/12 Q1018
VFR 17°C / 12°C variable 3kt >10km - Few Clouds 9000ft
Scattered Clouds 12000ft
1018 - LOWI 152150Z AUTO VRB03KT 9999 FEW090 SCT120 17/12 Q1018
VFR 18°C / 12°C variable 1kt >10km - Scattered Clouds 11000ft 1018 - LOWI 152120Z AUTO VRB01KT 9999 SCT110 18/12 Q1018
VFR 19°C / 12°C variable 2kt >10km - Scattered Clouds 11000ft 1018 No Significant change LOWI 152050Z VRB02KT 9999 SCT110 19/12 Q1018 NOSIG
VFR 20°C / 12°C variable 1kt >10km - Scattered Clouds 11000ft 1018 No Significant change LOWI 152020Z VRB01KT 9999 SCT110 20/12 Q1018 NOSIG
VFR 21°C / 12°C variable 2kt >10km - Scattered Clouds 11000ft 1017 No Significant change LOWI 151950Z VRB02KT 9999 SCT110 21/12 Q1017 NOSIG
VFR 21°C / 12°C 50º variable 020º to 110º 3kt >10km - Few Clouds 8000ft
Scattered Clouds 11000ft
1017 No Significant change LOWI 151920Z 05003KT 020V110 9999 FEW080 SCT110 21/12 Q1017 NOSIG
VFR 22°C / 12°C 70º 7kt >10km - Few Clouds 8000ft
Scattered Clouds 11000ft
1016 No Significant change LOWI 151850Z 07007KT 9999 FEW080 SCT110 22/12 Q1016 NOSIG
VFR 23°C / 12°C 70º 10kt >10km - Few Clouds 8000ft 1016 No Significant change LOWI 151820Z 07010KT 9999 FEW080 23/12 Q1016 NOSIG
VFR 24°C / 12°C 70º 13kt >10km - Scattered Clouds 8000ft 1016 No Significant change LOWI 151750Z 07013KT 9999 SCT080 24/12 Q1016 NOSIG
VFR 24°C / 12°C 60º 13kt >10km - Few Clouds 8000ft 1015 No Significant change LOWI 151720Z 06013KT 9999 FEW080 24/12 Q1015 NOSIG
VFR 25°C / 12°C 70º 14kt >10km - Few Clouds 8000ft
Few Clouds 8000ft
1015 Temporary: Thunderstorm . LOWI 151650Z 07014KT 9999 FEW080 FEW080TCU 25/12 Q1015 TEMPO TS

VFR

15°C / 14°C

[أكثر]
رياح variable 2kt
مجال رؤية >10km
حالة الطقس -
غيوم Few Clouds 800ft
Broken Clouds 8000ft
الضغط 1020
تغيير No Significant change
خام LOWI 160420Z VRB02KT 9999 FEW008 BKN080 15/14 Q1020 RESHRA NOSIG

VFR

16°C / 14°C

[أكثر]
رياح variable 2kt
مجال رؤية >10km
حالة الطقس Showers Rain 3.00mm precipitation
غيوم Vertical Visibility of 0ft.
Broken Clouds 8000ft
الضغط 1020
تغيير Becoming: NSW
خام LOWI 160350Z VRB02KT 9999 SHRA FEW015 BKN080 16/14 Q1020 BECMG NSW

VFR

16°C / 14°C

[أكثر]
رياح variable 2kt
مجال رؤية >10km
حالة الطقس Light Rain 1.00mm precipitation
غيوم Vertical Visibility of 0ft.
Broken Clouds 9000ft
الضغط 1019
تغيير -
خام LOWI 160320Z AUTO VRB02KT 9999 -RA FEW046 BKN090 16/14 Q1019

VFR

16°C / 15°C

[أكثر]
رياح 110º variable 070º to 150º 3kt
مجال رؤية >10km
حالة الطقس -
غيوم Few Clouds 7000ft
Scattered Clouds 9000ft
Broken Clouds 10000ft
الضغط 1019
تغيير -
خام LOWI 160250Z AUTO 11003KT 070V150 9999 FEW070 SCT090 BKN100 16/15 Q1019

VFR

16°C / 14°C

[أكثر]
رياح variable 4kt
مجال رؤية >10km
حالة الطقس -
غيوم Broken Clouds 8000ft
الضغط 1019
تغيير -
خام LOWI 160220Z AUTO VRB04KT 9999 BKN080 16/14 Q1019

VFR

16°C / 14°C

[أكثر]
رياح variable 2kt
مجال رؤية >10km
حالة الطقس in the Vicinity Thunderstorm
غيوم Vertical Visibility of 0ft.
Broken Clouds 8000ft
الضغط 1019
تغيير -
خام LOWI 160150Z AUTO VRB02KT 9999 VCTS //////CB FEW070 BKN080 16/14 Q1019

VFR

17°C / 13°C

[أكثر]
رياح 250º 3kt
مجال رؤية >10km
حالة الطقس Light Showers Rain 3.00mm precipitation
غيوم Vertical Visibility of 0ft.
Scattered Clouds 4800ft
Broken Clouds 8000ft
الضغط 1019
تغيير -
خام LOWI 160120Z AUTO 25003KT 9999 -SHRA //////CB FEW019 SCT048 BKN080 17/13 Q1019 RESHRA

VFR

17°C / 12°C

[أكثر]
رياح variable 1kt
مجال رؤية >10km
حالة الطقس -
غيوم Broken Clouds 7000ft
الضغط 1019
تغيير -
خام LOWI 160050Z AUTO VRB01KT 9999 //////CB BKN070 17/12 Q1019

VFR

17°C / 12°C

[أكثر]
رياح variable 2kt
مجال رؤية >10km
حالة الطقس -
غيوم Broken Clouds 7000ft
الضغط 1018
تغيير -
خام LOWI 160020Z AUTO VRB02KT 9999 BKN070 17/12 Q1018

VFR

17°C / 12°C

[أكثر]
رياح variable 2kt
مجال رؤية >10km
حالة الطقس -
غيوم Few Clouds 7000ft
Broken Clouds 8000ft
الضغط 1019
تغيير -
خام LOWI 152350Z AUTO VRB02KT 9999 FEW070 BKN080 17/12 Q1019

VFR

17°C / 12°C

[أكثر]
رياح variable 2kt
مجال رؤية >10km
حالة الطقس -
غيوم Few Clouds 9000ft
الضغط 1019
تغيير -
خام LOWI 152320Z AUTO VRB02KT 9999 FEW090 17/12 Q1019

VFR

17°C / 12°C

[أكثر]
رياح variable 2kt
مجال رؤية >10km
حالة الطقس -
غيوم Scattered Clouds 9000ft
Broken Clouds 11000ft
الضغط 1019
تغيير -
خام LOWI 152250Z AUTO VRB02KT 9999 SCT090 BKN110 17/12 Q1019

VFR

18°C / 12°C

[أكثر]
رياح variable 2kt
مجال رؤية >10km
حالة الطقس -
غيوم Few Clouds 8000ft
Scattered Clouds 10000ft
الضغط 1018
تغيير -
خام LOWI 152220Z AUTO VRB02KT 9999 FEW080 SCT100 18/12 Q1018

VFR

17°C / 12°C

[أكثر]
رياح variable 3kt
مجال رؤية >10km
حالة الطقس -
غيوم Few Clouds 9000ft
Scattered Clouds 12000ft
الضغط 1018
تغيير -
خام LOWI 152150Z AUTO VRB03KT 9999 FEW090 SCT120 17/12 Q1018

VFR

18°C / 12°C

[أكثر]
رياح variable 1kt
مجال رؤية >10km
حالة الطقس -
غيوم Scattered Clouds 11000ft
الضغط 1018
تغيير -
خام LOWI 152120Z AUTO VRB01KT 9999 SCT110 18/12 Q1018

VFR

19°C / 12°C

[أكثر]
رياح variable 2kt
مجال رؤية >10km
حالة الطقس -
غيوم Scattered Clouds 11000ft
الضغط 1018
تغيير No Significant change
خام LOWI 152050Z VRB02KT 9999 SCT110 19/12 Q1018 NOSIG

VFR

20°C / 12°C

[أكثر]
رياح variable 1kt
مجال رؤية >10km
حالة الطقس -
غيوم Scattered Clouds 11000ft
الضغط 1018
تغيير No Significant change
خام LOWI 152020Z VRB01KT 9999 SCT110 20/12 Q1018 NOSIG

VFR

21°C / 12°C

[أكثر]
رياح variable 2kt
مجال رؤية >10km
حالة الطقس -
غيوم Scattered Clouds 11000ft
الضغط 1017
تغيير No Significant change
خام LOWI 151950Z VRB02KT 9999 SCT110 21/12 Q1017 NOSIG

VFR

21°C / 12°C

[أكثر]
رياح 50º variable 020º to 110º 3kt
مجال رؤية >10km
حالة الطقس -
غيوم Few Clouds 8000ft
Scattered Clouds 11000ft
الضغط 1017
تغيير No Significant change
خام LOWI 151920Z 05003KT 020V110 9999 FEW080 SCT110 21/12 Q1017 NOSIG

VFR

22°C / 12°C

[أكثر]
رياح 70º 7kt
مجال رؤية >10km
حالة الطقس -
غيوم Few Clouds 8000ft
Scattered Clouds 11000ft
الضغط 1016
تغيير No Significant change
خام LOWI 151850Z 07007KT 9999 FEW080 SCT110 22/12 Q1016 NOSIG

VFR

23°C / 12°C

[أكثر]
رياح 70º 10kt
مجال رؤية >10km
حالة الطقس -
غيوم Few Clouds 8000ft
الضغط 1016
تغيير No Significant change
خام LOWI 151820Z 07010KT 9999 FEW080 23/12 Q1016 NOSIG

VFR

24°C / 12°C

[أكثر]
رياح 70º 13kt
مجال رؤية >10km
حالة الطقس -
غيوم Scattered Clouds 8000ft
الضغط 1016
تغيير No Significant change
خام LOWI 151750Z 07013KT 9999 SCT080 24/12 Q1016 NOSIG

VFR

24°C / 12°C

[أكثر]
رياح 60º 13kt
مجال رؤية >10km
حالة الطقس -
غيوم Few Clouds 8000ft
الضغط 1015
تغيير No Significant change
خام LOWI 151720Z 06013KT 9999 FEW080 24/12 Q1015 NOSIG

VFR

25°C / 12°C

[أكثر]
رياح 70º 14kt
مجال رؤية >10km
حالة الطقس -
غيوم Few Clouds 8000ft
Few Clouds 8000ft
الضغط 1015
تغيير Temporary: Thunderstorm .
خام LOWI 151650Z 07014KT 9999 FEW080 FEW080TCU 25/12 Q1015 TEMPO TS

انقر لإنسبروك (LOWI)

From till


Maximum Temperature 23ºC on . Minimum Temperature 14ºC on .
From till Wind 100º 5kt. Visibility 10km or more. Broken Clouds 8000ft.
Temporarly from till Thunderstorm Rain . Few Clouds 6000ft.
Becoming from till Wind 100º 5kt. Visibility 10km or more. Scattered Clouds 7000ft.
Temporarly from till Wind 270º 15kt. Gust 30kt. Thunderstorm Rain . Scattered Clouds 5000ft. Broken Clouds 6000ft.
Becoming from till Wind 270º 5kt. Visibility 10km or more. Scattered Clouds 5000ft.

خام: TAF AMD LOWI 160351Z 1603/1624 10005KT 9999 BKN080 TX23/1610Z TN14/1604Z TEMPO 1603/1605 TSRA FEW060CB BECMG 1608/1610 SCT070TCU TEMPO 1610/1620 27015G30KT TSRA SCT050CB BKN060 BECMG 1618/1620 27005KT SCT050

رادار لإنسبروك

رذاذ
ضوء
معتدل
ثقيل
ثقيل جدا
وابل

مؤشر المكان يشير الى إنسبروك. تظهر في هذه الرسوم المتحركة هطول الامطار بالرادار للساعة الماضية, و توقعات 2h. رذاذ أو تساقط ثلوج خفيف قد يكون غير مرئي للرادار. كثافة هطول الأمطار مرمزة بالألوان وتتراوح من الأزرق الفاتح إلى البرتقالي.
Copyright 2022 Deutscher Wetterdienst / meteoblue.

صور الأقمار الصناعية الملتقطة و الأمطار حالياً لإنسبروك, النمسا

المؤشر يدل على موقع إنسبروك. [أكثر]

تجمع صورة الأقمار الصناعية في الوقت الفعلي بين الضوء المرئي أثناء النهار والأشعة تحت الحمراء أثناء الليل. لا تبدو الصورة مظلمة ليلاً، لأن الأشعة تحت الحمراء يمكنها الكشف عن الاختلافات في درجة الحرارة. لسوء الحظ ، يصعب التمييز بين السحب المنخفضة والضباب ودرجات حرارة الأرض ، وبالتالي يمكن أن تكون الصور غير مرئية تقريبًا أثناء الليل. يتم تحديث صور الأقمار الصناعية Meteosat الخاصة بأوروبا في الوقت الفعلي كل 5 دقائق، بينما يتم تحديث صور GOES-16 / GOES-17 (أمريكا الشمالية والجنوبية) و Himawari (آسيا) كل 10 دقائق.

يقدر هطول الأمطار من الرادار والأقمار الصناعية. تقديرات هطول الأمطار ليلا من قبل الأقمار الصناعية هي أقل دقة من النهار. اللون البرتقالي يعبر الأماكن حيث تم الكشف عن البرق (أكثر من أوروبا).

حقوق النسخ 2022 EUMETSAT / meteoblue. بيانات البرق مقدمة من nowcast.

العودة الى الأعلى